sensor_id;sensor_type;location;lat;lon;timestamp;temperature;humidity
44565;DHT22;30275;51.822;-0.326;2022-07-23T00:00:15;17.60;98.90
44565;DHT22;30275;51.822;-0.326;2022-07-23T00:02:41;17.70;99.00
44565;DHT22;30275;51.822;-0.326;2022-07-23T00:05:10;17.80;98.90
44565;DHT22;30275;51.822;-0.326;2022-07-23T00:07:37;17.80;98.90
44565;DHT22;30275;51.822;-0.326;2022-07-23T00:10:03;17.90;99.00
44565;DHT22;30275;51.822;-0.326;2022-07-23T00:12:29;18.00;98.60
44565;DHT22;30275;51.822;-0.326;2022-07-23T00:14:55;18.10;98.40
44565;DHT22;30275;51.822;-0.326;2022-07-23T00:17:21;18.20;98.40
44565;DHT22;30275;51.822;-0.326;2022-07-23T00:19:46;18.20;98.20
44565;DHT22;30275;51.822;-0.326;2022-07-23T00:22:12;18.20;98.20
44565;DHT22;30275;51.822;-0.326;2022-07-23T00:24:38;18.20;98.20
44565;DHT22;30275;51.822;-0.326;2022-07-23T00:27:03;18.20;98.10
44565;DHT22;30275;51.822;-0.326;2022-07-23T00:29:29;18.20;97.80
44565;DHT22;30275;51.822;-0.326;2022-07-23T00:31:55;18.30;97.70
44565;DHT22;30275;51.822;-0.326;2022-07-23T00:34:20;18.30;97.70
44565;DHT22;30275;51.822;-0.326;2022-07-23T00:36:46;18.30;97.20
44565;DHT22;30275;51.822;-0.326;2022-07-23T00:39:12;18.20;97.60
44565;DHT22;30275;51.822;-0.326;2022-07-23T00:41:38;17.90;97.90
44565;DHT22;30275;51.822;-0.326;2022-07-23T00:44:24;17.70;98.50
44565;DHT22;30275;51.822;-0.326;2022-07-23T00:46:54;17.70;98.60
44565;DHT22;30275;51.822;-0.326;2022-07-23T00:49:24;17.70;98.70
44565;DHT22;30275;51.822;-0.326;2022-07-23T00:51:50;17.80;98.60
44565;DHT22;30275;51.822;-0.326;2022-07-23T00:54:17;17.80;98.60
44565;DHT22;30275;51.822;-0.326;2022-07-23T00:56:44;17.90;98.50
44565;DHT22;30275;51.822;-0.326;2022-07-23T00:59:10;18.00;98.40
44565;DHT22;30275;51.822;-0.326;2022-07-23T01:01:36;18.00;98.50
44565;DHT22;30275;51.822;-0.326;2022-07-23T01:04:02;18.10;98.30
44565;DHT22;30275;51.822;-0.326;2022-07-23T01:06:28;18.20;98.00
44565;DHT22;30275;51.822;-0.326;2022-07-23T01:08:55;18.30;98.00
44565;DHT22;30275;51.822;-0.326;2022-07-23T01:11:22;18.30;97.90
44565;DHT22;30275;51.822;-0.326;2022-07-23T01:13:48;18.30;97.80
44565;DHT22;30275;51.822;-0.326;2022-07-23T01:16:14;18.30;97.50
44565;DHT22;30275;51.822;-0.326;2022-07-23T01:18:40;18.20;97.60
44565;DHT22;30275;51.822;-0.326;2022-07-23T01:21:06;18.30;98.10
44565;DHT22;30275;51.822;-0.326;2022-07-23T01:23:32;18.20;97.60
44565;DHT22;30275;51.822;-0.326;2022-07-23T01:25:57;18.10;97.80
44565;DHT22;30275;51.822;-0.326;2022-07-23T01:28:23;18.10;97.80
44565;DHT22;30275;51.822;-0.326;2022-07-23T01:30:49;18.00;97.70
44565;DHT22;30275;51.822;-0.326;2022-07-23T01:33:15;17.90;98.10
44565;DHT22;30275;51.822;-0.326;2022-07-23T01:35:40;17.90;97.90
44565;DHT22;30275;51.822;-0.326;2022-07-23T01:38:06;17.70;98.20
44565;DHT22;30275;51.822;-0.326;2022-07-23T01:40:32;17.70;98.30
44565;DHT22;30275;51.822;-0.326;2022-07-23T01:42:58;17.60;98.90
44565;DHT22;30275;51.822;-0.326;2022-07-23T01:45:23;17.70;98.80
44565;DHT22;30275;51.822;-0.326;2022-07-23T01:47:49;17.70;98.30
44565;DHT22;30275;51.822;-0.326;2022-07-23T01:50:15;17.70;98.50
44565;DHT22;30275;51.822;-0.326;2022-07-23T01:52:41;17.60;98.70
44565;DHT22;30275;51.822;-0.326;2022-07-23T01:55:07;17.50;98.70
44565;DHT22;30275;51.822;-0.326;2022-07-23T01:57:33;17.50;99.00
44565;DHT22;30275;51.822;-0.326;2022-07-23T02:00:02;17.40;98.90
44565;DHT22;30275;51.822;-0.326;2022-07-23T02:02:28;17.40;99.10
44565;DHT22;30275;51.822;-0.326;2022-07-23T02:04:54;17.40;98.80
44565;DHT22;30275;51.822;-0.326;2022-07-23T02:07:20;17.50;98.80
44565;DHT22;30275;51.822;-0.326;2022-07-23T02:09:45;17.50;98.80
44565;DHT22;30275;51.822;-0.326;2022-07-23T02:12:11;17.60;98.60
44565;DHT22;30275;51.822;-0.326;2022-07-23T02:14:37;17.80;97.90
44565;DHT22;30275;51.822;-0.326;2022-07-23T02:17:02;17.80;97.90
44565;DHT22;30275;51.822;-0.326;2022-07-23T02:20:02;17.60;98.20
44565;DHT22;30275;51.822;-0.326;2022-07-23T02:22:28;17.50;98.50
44565;DHT22;30275;51.822;-0.326;2022-07-23T02:24:53;17.40;97.90
44565;DHT22;30275;51.822;-0.326;2022-07-23T02:27:19;17.20;98.20
44565;DHT22;30275;51.822;-0.326;2022-07-23T02:29:45;17.10;98.90
44565;DHT22;30275;51.822;-0.326;2022-07-23T02:32:10;17.00;99.60
44565;DHT22;30275;51.822;-0.326;2022-07-23T02:34:36;16.80;99.80
44565;DHT22;30275;51.822;-0.326;2022-07-23T02:37:01;16.70;99.20
44565;DHT22;30275;51.822;-0.326;2022-07-23T02:39:27;16.60;99.50
44565;DHT22;30275;51.822;-0.326;2022-07-23T02:41:53;16.50;99.90
44565;DHT22;30275;51.822;-0.326;2022-07-23T02:44:19;16.40;99.90
44565;DHT22;30275;51.822;-0.326;2022-07-23T02:46:44;16.40;99.90
44565;DHT22;30275;51.822;-0.326;2022-07-23T02:49:10;16.30;99.90
44565;DHT22;30275;51.822;-0.326;2022-07-23T02:51:35;16.40;99.90
44565;DHT22;30275;51.822;-0.326;2022-07-23T02:54:01;16.50;99.90
44565;DHT22;30275;51.822;-0.326;2022-07-23T02:56:27;16.20;99.90
44565;DHT22;30275;51.822;-0.326;2022-07-23T02:58:53;16.20;99.90
44565;DHT22;30275;51.822;-0.326;2022-07-23T03:01:18;16.30;99.90
44565;DHT22;30275;51.822;-0.326;2022-07-23T03:03:44;16.20;99.90
44565;DHT22;30275;51.822;-0.326;2022-07-23T03:06:10;16.40;99.90
44565;DHT22;30275;51.822;-0.326;2022-07-23T03:09:03;16.40;99.90
44565;DHT22;30275;51.822;-0.326;2022-07-23T03:15:18;16.30;99.90
44565;DHT22;30275;51.822;-0.326;2022-07-23T03:17:44;16.30;99.90
44565;DHT22;30275;51.822;-0.326;2022-07-23T03:20:10;16.30;99.90
44565;DHT22;30275;51.822;-0.326;2022-07-23T03:22:36;16.50;99.90
44565;DHT22;30275;51.822;-0.326;2022-07-23T03:25:01;16.60;99.90
44565;DHT22;30275;51.822;-0.326;2022-07-23T03:27:29;16.60;99.90
44565;DHT22;30275;51.822;-0.326;2022-07-23T03:29:56;16.60;99.90
44565;DHT22;30275;51.822;-0.326;2022-07-23T03:32:23;16.70;99.90
44565;DHT22;30275;51.822;-0.326;2022-07-23T03:34:49;16.70;99.90
44565;DHT22;30275;51.822;-0.326;2022-07-23T03:37:16;16.70;99.90
44565;DHT22;30275;51.822;-0.326;2022-07-23T03:39:51;16.90;99.90
44565;DHT22;30275;51.822;-0.326;2022-07-23T03:42:16;16.80;99.90
44565;DHT22;30275;51.822;-0.326;2022-07-23T03:44:42;16.90;99.90
44565;DHT22;30275;51.822;-0.326;2022-07-23T03:47:08;16.80;99.90
44565;DHT22;30275;51.822;-0.326;2022-07-23T03:49:34;16.80;99.90
44565;DHT22;30275;51.822;-0.326;2022-07-23T03:52:00;16.60;99.90
44565;DHT22;30275;51.822;-0.326;2022-07-23T03:54:26;16.50;99.90
44565;DHT22;30275;51.822;-0.326;2022-07-23T03:56:52;16.40;99.90
44565;DHT22;30275;51.822;-0.326;2022-07-23T03:59:18;16.40;99.90
44565;DHT22;30275;51.822;-0.326;2022-07-23T04:01:43;16.50;99.90
44565;DHT22;30275;51.822;-0.326;2022-07-23T04:04:09;16.60;99.90
44565;DHT22;30275;51.822;-0.326;2022-07-23T04:06:35;16.80;99.90
44565;DHT22;30275;51.822;-0.326;2022-07-23T04:09:02;16.70;99.90
44565;DHT22;30275;51.822;-0.326;2022-07-23T04:11:27;16.60;99.90
44565;DHT22;30275;51.822;-0.326;2022-07-23T04:13:53;16.50;99.90
44565;DHT22;30275;51.822;-0.326;2022-07-23T04:16:19;16.50;99.90
44565;DHT22;30275;51.822;-0.326;2022-07-23T04:18:44;16.40;99.90
44565;DHT22;30275;51.822;-0.326;2022-07-23T04:21:10;16.50;99.90
44565;DHT22;30275;51.822;-0.326;2022-07-23T04:23:39;16.60;99.90
44565;DHT22;30275;51.822;-0.326;2022-07-23T04:26:04;16.60;99.90
44565;DHT22;30275;51.822;-0.326;2022-07-23T04:28:30;16.70;99.90
44565;DHT22;30275;51.822;-0.326;2022-07-23T04:30:57;16.70;99.90
44565;DHT22;30275;51.822;-0.326;2022-07-23T04:33:23;16.80;99.90
44565;DHT22;30275;51.822;-0.326;2022-07-23T04:35:48;16.90;99.90
44565;DHT22;30275;51.822;-0.326;2022-07-23T04:38:14;16.90;99.90
44565;DHT22;30275;51.822;-0.326;2022-07-23T04:40:40;17.10;99.90
44565;DHT22;30275;51.822;-0.326;2022-07-23T04:43:05;17.10;99.90
44565;DHT22;30275;51.822;-0.326;2022-07-23T04:45:31;17.00;99.90
44565;DHT22;30275;51.822;-0.326;2022-07-23T04:47:57;17.00;99.90
44565;DHT22;30275;51.822;-0.326;2022-07-23T04:50:22;17.00;99.90
44565;DHT22;30275;51.822;-0.326;2022-07-23T04:52:48;17.10;99.90
44565;DHT22;30275;51.822;-0.326;2022-07-23T04:55:14;17.20;99.90
44565;DHT22;30275;51.822;-0.326;2022-07-23T04:57:40;17.20;99.90
44565;DHT22;30275;51.822;-0.326;2022-07-23T05:00:07;17.40;99.90
44565;DHT22;30275;51.822;-0.326;2022-07-23T05:02:32;17.40;99.90
44565;DHT22;30275;51.822;-0.326;2022-07-23T05:04:58;17.50;99.90
44565;DHT22;30275;51.822;-0.326;2022-07-23T05:07:24;17.60;99.90
44565;DHT22;30275;51.822;-0.326;2022-07-23T05:09:50;17.60;99.90
44565;DHT22;30275;51.822;-0.326;2022-07-23T05:12:15;17.60;99.90
44565;DHT22;30275;51.822;-0.326;2022-07-23T05:14:41;17.50;99.90
44565;DHT22;30275;51.822;-0.326;2022-07-23T05:17:07;17.50;99.90
44565;DHT22;30275;51.822;-0.326;2022-07-23T05:19:34;17.50;99.90
44565;DHT22;30275;51.822;-0.326;2022-07-23T05:22:00;17.60;99.90
44565;DHT22;30275;51.822;-0.326;2022-07-23T05:24:25;17.60;99.90
44565;DHT22;30275;51.822;-0.326;2022-07-23T05:26:51;17.50;99.90
44565;DHT22;30275;51.822;-0.326;2022-07-23T05:29:17;17.50;99.90
44565;DHT22;30275;51.822;-0.326;2022-07-23T05:31:42;17.40;99.90
44565;DHT22;30275;51.822;-0.326;2022-07-23T05:34:08;17.50;99.90
44565;DHT22;30275;51.822;-0.326;2022-07-23T05:36:34;17.50;99.90
44565;DHT22;30275;51.822;-0.326;2022-07-23T05:38:59;17.40;99.90
44565;DHT22;30275;51.822;-0.326;2022-07-23T05:41:25;17.30;99.90
44565;DHT22;30275;51.822;-0.326;2022-07-23T05:43:51;17.20;99.90
44565;DHT22;30275;51.822;-0.326;2022-07-23T05:46:17;17.10;99.90
44565;DHT22;30275;51.822;-0.326;2022-07-23T05:48:42;17.10;99.90
44565;DHT22;30275;51.822;-0.326;2022-07-23T05:51:08;17.20;99.90
44565;DHT22;30275;51.822;-0.326;2022-07-23T05:53:35;17.30;99.90
44565;DHT22;30275;51.822;-0.326;2022-07-23T05:56:01;17.40;99.90
44565;DHT22;30275;51.822;-0.326;2022-07-23T05:58:26;17.60;99.90
44565;DHT22;30275;51.822;-0.326;2022-07-23T06:00:52;17.90;99.90
44565;DHT22;30275;51.822;-0.326;2022-07-23T06:03:18;18.00;99.90
44565;DHT22;30275;51.822;-0.326;2022-07-23T06:05:43;18.30;99.90
44565;DHT22;30275;51.822;-0.326;2022-07-23T06:08:09;18.50;99.90
44565;DHT22;30275;51.822;-0.326;2022-07-23T06:10:35;18.60;99.90
44565;DHT22;30275;51.822;-0.326;2022-07-23T06:13:00;18.80;99.90
44565;DHT22;30275;51.822;-0.326;2022-07-23T06:15:26;18.90;99.90
44565;DHT22;30275;51.822;-0.326;2022-07-23T06:17:52;18.90;99.90
44565;DHT22;30275;51.822;-0.326;2022-07-23T06:20:17;18.90;99.90
44565;DHT22;30275;51.822;-0.326;2022-07-23T06:22:43;19.00;99.90
44565;DHT22;30275;51.822;-0.326;2022-07-23T06:25:09;18.90;99.90
44565;DHT22;30275;51.822;-0.326;2022-07-23T06:27:39;18.90;99.90
44565;DHT22;30275;51.822;-0.326;2022-07-23T06:30:13;18.90;99.90
44565;DHT22;30275;51.822;-0.326;2022-07-23T06:32:41;18.80;99.90
44565;DHT22;30275;51.822;-0.326;2022-07-23T06:35:07;18.60;99.90
44565;DHT22;30275;51.822;-0.326;2022-07-23T06:37:33;18.50;99.90
44565;DHT22;30275;51.822;-0.326;2022-07-23T06:39:59;18.60;99.90
44565;DHT22;30275;51.822;-0.326;2022-07-23T06:42:24;18.50;99.90
44565;DHT22;30275;51.822;-0.326;2022-07-23T06:44:50;18.50;99.90
44565;DHT22;30275;51.822;-0.326;2022-07-23T06:47:16;18.60;99.90
44565;DHT22;30275;51.822;-0.326;2022-07-23T06:49:43;18.50;99.90
44565;DHT22;30275;51.822;-0.326;2022-07-23T06:52:08;18.50;99.90
44565;DHT22;30275;51.822;-0.326;2022-07-23T06:54:34;18.50;99.90
44565;DHT22;30275;51.822;-0.326;2022-07-23T06:57:00;18.50;99.90
44565;DHT22;30275;51.822;-0.326;2022-07-23T06:59:26;18.60;99.90
44565;DHT22;30275;51.822;-0.326;2022-07-23T07:01:52;18.70;99.90
44565;DHT22;30275;51.822;-0.326;2022-07-23T07:04:18;18.80;99.90
44565;DHT22;30275;51.822;-0.326;2022-07-23T07:06:43;18.70;99.90
44565;DHT22;30275;51.822;-0.326;2022-07-23T07:09:09;18.80;99.90
44565;DHT22;30275;51.822;-0.326;2022-07-23T07:11:35;18.90;99.90
44565;DHT22;30275;51.822;-0.326;2022-07-23T07:14:00;19.00;99.90
44565;DHT22;30275;51.822;-0.326;2022-07-23T07:16:26;19.00;99.90
44565;DHT22;30275;51.822;-0.326;2022-07-23T07:18:52;19.00;99.90
44565;DHT22;30275;51.822;-0.326;2022-07-23T07:21:17;19.00;99.90
44565;DHT22;30275;51.822;-0.326;2022-07-23T07:23:43;19.00;99.90
44565;DHT22;30275;51.822;-0.326;2022-07-23T07:26:09;19.00;99.90
44565;DHT22;30275;51.822;-0.326;2022-07-23T07:28:34;19.10;99.90
44565;DHT22;30275;51.822;-0.326;2022-07-23T07:31:00;19.10;99.90
44565;DHT22;30275;51.822;-0.326;2022-07-23T07:33:26;19.10;99.90
44565;DHT22;30275;51.822;-0.326;2022-07-23T07:35:51;19.10;99.90
44565;DHT22;30275;51.822;-0.326;2022-07-23T07:38:17;19.20;99.90
44565;DHT22;30275;51.822;-0.326;2022-07-23T07:40:43;19.20;99.90
44565;DHT22;30275;51.822;-0.326;2022-07-23T07:43:09;19.20;99.90
44565;DHT22;30275;51.822;-0.326;2022-07-23T07:45:34;19.20;99.90
44565;DHT22;30275;51.822;-0.326;2022-07-23T07:48:00;19.30;99.90
44565;DHT22;30275;51.822;-0.326;2022-07-23T07:50:26;19.20;99.90
44565;DHT22;30275;51.822;-0.326;2022-07-23T07:52:52;19.30;99.90
44565;DHT22;30275;51.822;-0.326;2022-07-23T07:55:17;19.20;99.90
44565;DHT22;30275;51.822;-0.326;2022-07-23T07:57:47;19.20;99.90
44565;DHT22;30275;51.822;-0.326;2022-07-23T08:00:12;19.20;99.90
44565;DHT22;30275;51.822;-0.326;2022-07-23T08:02:46;19.20;99.90
44565;DHT22;30275;51.822;-0.326;2022-07-23T08:05:13;19.30;99.90
44565;DHT22;30275;51.822;-0.326;2022-07-23T08:07:40;19.40;99.90
44565;DHT22;30275;51.822;-0.326;2022-07-23T08:10:07;19.40;99.90
44565;DHT22;30275;51.822;-0.326;2022-07-23T08:12:59;19.40;99.90
44565;DHT22;30275;51.822;-0.326;2022-07-23T08:15:28;19.50;99.90
44565;DHT22;30275;51.822;-0.326;2022-07-23T08:17:55;19.60;99.90
44565;DHT22;30275;51.822;-0.326;2022-07-23T08:20:22;19.50;99.90
44565;DHT22;30275;51.822;-0.326;2022-07-23T08:23:06;19.50;99.90
44565;DHT22;30275;51.822;-0.326;2022-07-23T08:25:37;19.60;99.90
44565;DHT22;30275;51.822;-0.326;2022-07-23T08:28:09;19.60;99.90
44565;DHT22;30275;51.822;-0.326;2022-07-23T08:30:36;19.60;99.90
44565;DHT22;30275;51.822;-0.326;2022-07-23T08:33:07;19.60;99.90
44565;DHT22;30275;51.822;-0.326;2022-07-23T08:35:38;19.60;99.90
44565;DHT22;30275;51.822;-0.326;2022-07-23T08:38:09;19.70;99.90
44565;DHT22;30275;51.822;-0.326;2022-07-23T08:40:38;19.70;99.90
44565;DHT22;30275;51.822;-0.326;2022-07-23T08:43:06;19.80;99.90
44565;DHT22;30275;51.822;-0.326;2022-07-23T08:45:37;19.80;99.90
44565;DHT22;30275;51.822;-0.326;2022-07-23T08:48:07;19.90;99.90
44565;DHT22;30275;51.822;-0.326;2022-07-23T08:50:35;20.10;99.50
44565;DHT22;30275;51.822;-0.326;2022-07-23T08:53:06;20.10;99.40
44565;DHT22;30275;51.822;-0.326;2022-07-23T08:55:36;20.20;99.50
44565;DHT22;30275;51.822;-0.326;2022-07-23T08:58:02;20.10;99.30
44565;DHT22;30275;51.822;-0.326;2022-07-23T09:00:28;20.00;99.50
44565;DHT22;30275;51.822;-0.326;2022-07-23T09:02:55;20.00;99.40
44565;DHT22;30275;51.822;-0.326;2022-07-23T09:05:20;20.10;99.30
44565;DHT22;30275;51.822;-0.326;2022-07-23T09:08:05;20.00;99.20
44565;DHT22;30275;51.822;-0.326;2022-07-23T09:10:56;20.00;99.10
44565;DHT22;30275;51.822;-0.326;2022-07-23T09:15:51;20.70;98.10
44565;DHT22;30275;51.822;-0.326;2022-07-23T09:18:17;20.70;97.60
44565;DHT22;30275;51.822;-0.326;2022-07-23T09:20:45;20.50;97.80
44565;DHT22;30275;51.822;-0.326;2022-07-23T09:23:11;20.30;97.90
44565;DHT22;30275;51.822;-0.326;2022-07-23T09:25:37;20.10;97.50
44565;DHT22;30275;51.822;-0.326;2022-07-23T09:28:02;20.10;97.40
44565;DHT22;30275;51.822;-0.326;2022-07-23T09:30:32;20.10;97.20
44565;DHT22;30275;51.822;-0.326;2022-07-23T09:33:13;20.20;97.20
44565;DHT22;30275;51.822;-0.326;2022-07-23T09:35:56;20.30;97.10
44565;DHT22;30275;51.822;-0.326;2022-07-23T09:38:24;20.30;97.50
44565;DHT22;30275;51.822;-0.326;2022-07-23T09:41:10;20.40;97.30
44565;DHT22;30275;51.822;-0.326;2022-07-23T09:43:36;20.70;97.30
44565;DHT22;30275;51.822;-0.326;2022-07-23T09:46:25;20.70;96.50
44565;DHT22;30275;51.822;-0.326;2022-07-23T09:48:52;21.00;95.60
44565;DHT22;30275;51.822;-0.326;2022-07-23T09:51:19;20.90;95.40
44565;DHT22;30275;51.822;-0.326;2022-07-23T09:53:54;21.00;95.70
44565;DHT22;30275;51.822;-0.326;2022-07-23T09:56:20;21.00;95.10
44565;DHT22;30275;51.822;-0.326;2022-07-23T09:58:50;20.70;94.90
44565;DHT22;30275;51.822;-0.326;2022-07-23T10:01:16;20.70;94.80
44565;DHT22;30275;51.822;-0.326;2022-07-23T10:03:42;21.10;93.20
44565;DHT22;30275;51.822;-0.326;2022-07-23T10:06:09;21.20;93.30
44565;DHT22;30275;51.822;-0.326;2022-07-23T10:08:36;21.40;92.80
44565;DHT22;30275;51.822;-0.326;2022-07-23T10:11:04;21.70;91.70
44565;DHT22;30275;51.822;-0.326;2022-07-23T10:13:30;22.00;90.90
44565;DHT22;30275;51.822;-0.326;2022-07-23T10:16:15;22.20;90.60
44565;DHT22;30275;51.822;-0.326;2022-07-23T10:18:45;21.80;91.30
44565;DHT22;30275;51.822;-0.326;2022-07-23T10:21:18;21.70;91.30
44565;DHT22;30275;51.822;-0.326;2022-07-23T10:24:16;21.50;90.70
44565;DHT22;30275;51.822;-0.326;2022-07-23T10:33:32;21.70;90.00
44565;DHT22;30275;51.822;-0.326;2022-07-23T10:36:32;22.00;89.30
44565;DHT22;30275;51.822;-0.326;2022-07-23T10:39:24;21.70;90.00
44565;DHT22;30275;51.822;-0.326;2022-07-23T10:41:52;21.50;90.10
44565;DHT22;30275;51.822;-0.326;2022-07-23T10:44:19;21.80;89.90
44565;DHT22;30275;51.822;-0.326;2022-07-23T10:49:34;22.00;90.00
44565;DHT22;30275;51.822;-0.326;2022-07-23T10:54:47;21.90;89.20
44565;DHT22;30275;51.822;-0.326;2022-07-23T10:57:15;22.00;89.10
44565;DHT22;30275;51.822;-0.326;2022-07-23T11:02:29;21.90;89.10
44565;DHT22;30275;51.822;-0.326;2022-07-23T11:05:00;21.80;88.10
44565;DHT22;30275;51.822;-0.326;2022-07-23T11:07:26;21.70;87.60
44565;DHT22;30275;51.822;-0.326;2022-07-23T11:09:53;22.20;87.00
44565;DHT22;30275;51.822;-0.326;2022-07-23T11:17:23;22.30;87.90
44565;DHT22;30275;51.822;-0.326;2022-07-23T11:25:04;22.70;85.00
44565;DHT22;30275;51.822;-0.326;2022-07-23T11:30:04;22.90;83.20
44565;DHT22;30275;51.822;-0.326;2022-07-23T11:32:32;22.60;84.40
44565;DHT22;30275;51.822;-0.326;2022-07-23T11:35:00;22.60;84.00
44565;DHT22;30275;51.822;-0.326;2022-07-23T11:37:39;22.40;84.50
44565;DHT22;30275;51.822;-0.326;2022-07-23T11:40:11;22.50;84.20
44565;DHT22;30275;51.822;-0.326;2022-07-23T11:42:38;22.40;83.90
44565;DHT22;30275;51.822;-0.326;2022-07-23T11:45:08;22.30;84.30
44565;DHT22;30275;51.822;-0.326;2022-07-23T11:47:34;22.30;84.80
44565;DHT22;30275;51.822;-0.326;2022-07-23T11:50:03;22.40;84.10
44565;DHT22;30275;51.822;-0.326;2022-07-23T11:52:30;22.30;84.20
44565;DHT22;30275;51.822;-0.326;2022-07-23T11:55:03;22.40;84.50
44565;DHT22;30275;51.822;-0.326;2022-07-23T11:57:40;22.40;83.60
44565;DHT22;30275;51.822;-0.326;2022-07-23T12:00:15;23.10;82.20
44565;DHT22;30275;51.822;-0.326;2022-07-23T12:02:51;22.90;82.80
44565;DHT22;30275;51.822;-0.326;2022-07-23T12:05:31;22.80;83.60
44565;DHT22;30275;51.822;-0.326;2022-07-23T12:07:57;22.80;82.60
44565;DHT22;30275;51.822;-0.326;2022-07-23T12:13:03;22.90;83.70
44565;DHT22;30275;51.822;-0.326;2022-07-23T12:15:32;23.00;83.90
44565;DHT22;30275;51.822;-0.326;2022-07-23T12:18:01;22.90;84.20
44565;DHT22;30275;51.822;-0.326;2022-07-23T12:20:33;22.80;84.30
44565;DHT22;30275;51.822;-0.326;2022-07-23T12:23:03;22.80;84.00
44565;DHT22;30275;51.822;-0.326;2022-07-23T12:25:31;22.90;83.60
44565;DHT22;30275;51.822;-0.326;2022-07-23T12:30:26;22.90;82.80
44565;DHT22;30275;51.822;-0.326;2022-07-23T12:32:54;23.30;83.10
44565;DHT22;30275;51.822;-0.326;2022-07-23T12:35:21;23.50;82.70
44565;DHT22;30275;51.822;-0.326;2022-07-23T12:37:49;23.60;81.70
44565;DHT22;30275;51.822;-0.326;2022-07-23T12:40:35;23.50;82.30
44565;DHT22;30275;51.822;-0.326;2022-07-23T12:43:07;23.40;82.40
44565;DHT22;30275;51.822;-0.326;2022-07-23T12:46:05;23.30;82.80
44565;DHT22;30275;51.822;-0.326;2022-07-23T12:48:36;23.30;82.90
44565;DHT22;30275;51.822;-0.326;2022-07-23T12:53:46;23.00;82.90
44565;DHT22;30275;51.822;-0.326;2022-07-23T12:56:19;23.00;83.00
44565;DHT22;30275;51.822;-0.326;2022-07-23T12:58:49;23.20;83.40
44565;DHT22;30275;51.822;-0.326;2022-07-23T13:01:24;23.20;83.80
44565;DHT22;30275;51.822;-0.326;2022-07-23T13:06:36;23.60;82.00
44565;DHT22;30275;51.822;-0.326;2022-07-23T13:09:04;23.60;81.90
44565;DHT22;30275;51.822;-0.326;2022-07-23T13:11:30;23.60;81.80
44565;DHT22;30275;51.822;-0.326;2022-07-23T13:13:56;23.70;80.90
44565;DHT22;30275;51.822;-0.326;2022-07-23T13:16:22;23.60;82.20
44565;DHT22;30275;51.822;-0.326;2022-07-23T13:18:47;23.80;82.10
44565;DHT22;30275;51.822;-0.326;2022-07-23T13:21:13;23.70;82.40
44565;DHT22;30275;51.822;-0.326;2022-07-23T13:23:39;23.60;82.50
44565;DHT22;30275;51.822;-0.326;2022-07-23T13:26:05;23.70;82.60
44565;DHT22;30275;51.822;-0.326;2022-07-23T13:28:30;23.80;82.70
44565;DHT22;30275;51.822;-0.326;2022-07-23T13:30:56;23.70;82.60
44565;DHT22;30275;51.822;-0.326;2022-07-23T13:33:24;23.70;82.60
44565;DHT22;30275;51.822;-0.326;2022-07-23T13:35:51;23.80;83.00
44565;DHT22;30275;51.822;-0.326;2022-07-23T13:38:18;23.90;82.60
44565;DHT22;30275;51.822;-0.326;2022-07-23T13:40:46;23.90;83.10
44565;DHT22;30275;51.822;-0.326;2022-07-23T13:43:14;23.90;83.50
44565;DHT22;30275;51.822;-0.326;2022-07-23T13:45:40;23.80;83.50
44565;DHT22;30275;51.822;-0.326;2022-07-23T13:48:10;23.70;84.50
44565;DHT22;30275;51.822;-0.326;2022-07-23T13:50:38;23.80;84.20
44565;DHT22;30275;51.822;-0.326;2022-07-23T13:53:05;24.00;83.70
44565;DHT22;30275;51.822;-0.326;2022-07-23T13:55:33;24.10;83.10
44565;DHT22;30275;51.822;-0.326;2022-07-23T13:57:59;23.90;83.70
44565;DHT22;30275;51.822;-0.326;2022-07-23T14:00:26;23.90;83.10
44565;DHT22;30275;51.822;-0.326;2022-07-23T14:02:52;23.90;84.00
44565;DHT22;30275;51.822;-0.326;2022-07-23T14:05:19;23.80;84.20
44565;DHT22;30275;51.822;-0.326;2022-07-23T14:07:44;23.90;85.30
44565;DHT22;30275;51.822;-0.326;2022-07-23T14:10:12;24.00;84.90
44565;DHT22;30275;51.822;-0.326;2022-07-23T14:12:38;23.90;84.50
44565;DHT22;30275;51.822;-0.326;2022-07-23T14:15:05;23.90;85.20
44565;DHT22;30275;51.822;-0.326;2022-07-23T14:17:32;23.90;84.70
44565;DHT22;30275;51.822;-0.326;2022-07-23T14:19:59;23.80;84.80
44565;DHT22;30275;51.822;-0.326;2022-07-23T14:22:25;23.70;85.20
44565;DHT22;30275;51.822;-0.326;2022-07-23T14:24:51;23.60;85.20
44565;DHT22;30275;51.822;-0.326;2022-07-23T14:27:17;23.60;85.60
44565;DHT22;30275;51.822;-0.326;2022-07-23T14:29:43;23.60;85.90
44565;DHT22;30275;51.822;-0.326;2022-07-23T14:32:12;23.60;86.00
44565;DHT22;30275;51.822;-0.326;2022-07-23T14:34:37;23.50;86.00
44565;DHT22;30275;51.822;-0.326;2022-07-23T14:37:03;23.60;86.10
44565;DHT22;30275;51.822;-0.326;2022-07-23T14:39:29;23.40;86.40
44565;DHT22;30275;51.822;-0.326;2022-07-23T14:41:55;23.40;86.90
44565;DHT22;30275;51.822;-0.326;2022-07-23T14:44:20;23.40;86.90
44565;DHT22;30275;51.822;-0.326;2022-07-23T14:46:46;23.50;87.20
44565;DHT22;30275;51.822;-0.326;2022-07-23T14:49:12;23.40;87.50
44565;DHT22;30275;51.822;-0.326;2022-07-23T14:51:38;23.50;87.80
44565;DHT22;30275;51.822;-0.326;2022-07-23T14:54:04;23.50;88.10
44565;DHT22;30275;51.822;-0.326;2022-07-23T14:56:30;23.50;88.00
44565;DHT22;30275;51.822;-0.326;2022-07-23T14:58:55;23.50;88.40
44565;DHT22;30275;51.822;-0.326;2022-07-23T15:01:22;23.50;88.10
44565;DHT22;30275;51.822;-0.326;2022-07-23T15:03:49;23.50;88.20
44565;DHT22;30275;51.822;-0.326;2022-07-23T15:06:16;23.30;88.70
44565;DHT22;30275;51.822;-0.326;2022-07-23T15:08:42;23.20;89.70
44565;DHT22;30275;51.822;-0.326;2022-07-23T15:11:08;23.20;89.40
44565;DHT22;30275;51.822;-0.326;2022-07-23T15:13:35;23.40;89.30
44565;DHT22;30275;51.822;-0.326;2022-07-23T15:16:01;23.40;89.10
44565;DHT22;30275;51.822;-0.326;2022-07-23T15:18:26;23.40;89.20
44565;DHT22;30275;51.822;-0.326;2022-07-23T15:20:52;23.40;89.30
44565;DHT22;30275;51.822;-0.326;2022-07-23T15:23:18;23.40;89.90
44565;DHT22;30275;51.822;-0.326;2022-07-23T15:25:43;23.40;89.70
44565;DHT22;30275;51.822;-0.326;2022-07-23T15:28:09;23.40;90.00
44565;DHT22;30275;51.822;-0.326;2022-07-23T15:30:35;23.50;89.70
44565;DHT22;30275;51.822;-0.326;2022-07-23T15:33:00;23.60;89.90
44565;DHT22;30275;51.822;-0.326;2022-07-23T15:35:26;23.40;89.70
44565;DHT22;30275;51.822;-0.326;2022-07-23T15:37:52;23.50;89.80
44565;DHT22;30275;51.822;-0.326;2022-07-23T15:40:18;23.60;89.80
44565;DHT22;30275;51.822;-0.326;2022-07-23T15:42:43;23.60;89.80
44565;DHT22;30275;51.822;-0.326;2022-07-23T15:45:09;23.60;90.00
44565;DHT22;30275;51.822;-0.326;2022-07-23T15:47:35;23.50;89.80
44565;DHT22;30275;51.822;-0.326;2022-07-23T15:50:01;23.50;90.00
44565;DHT22;30275;51.822;-0.326;2022-07-23T15:52:26;23.50;90.10
44565;DHT22;30275;51.822;-0.326;2022-07-23T15:54:52;23.60;89.90
44565;DHT22;30275;51.822;-0.326;2022-07-23T15:57:18;23.60;89.20
44565;DHT22;30275;51.822;-0.326;2022-07-23T15:59:44;23.60;89.30
44565;DHT22;30275;51.822;-0.326;2022-07-23T16:02:09;23.50;89.50